sensor_id;sensor_type;location;lat;lon;timestamp;P1;durP1;ratioP1;P2;durP2;ratioP2
20865;SDS011;10593;48.398;10.698;2023-03-21T00:01:34;2.93;;;2.40;;
20865;SDS011;10593;48.398;10.698;2023-03-21T00:04:00;2.60;;;2.40;;
20865;SDS011;10593;48.398;10.698;2023-03-21T00:06:26;2.30;;;2.20;;
20865;SDS011;10593;48.398;10.698;2023-03-21T00:08:52;2.60;;;2.40;;
20865;SDS011;10593;48.398;10.698;2023-03-21T00:14:41;2.37;;;2.23;;
20865;SDS011;10593;48.398;10.698;2023-03-21T00:17:07;2.10;;;2.00;;
20865;SDS011;10593;48.398;10.698;2023-03-21T00:19:34;2.40;;;2.30;;
20865;SDS011;10593;48.398;10.698;2023-03-21T00:22:02;2.77;;;2.57;;
20865;SDS011;10593;48.398;10.698;2023-03-21T00:24:29;2.80;;;2.60;;
20865;SDS011;10593;48.398;10.698;2023-03-21T00:26:54;3.00;;;2.70;;
20865;SDS011;10593;48.398;10.698;2023-03-21T00:29:20;3.17;;;2.53;;
20865;SDS011;10593;48.398;10.698;2023-03-21T00:31:46;3.43;;;3.10;;
20865;SDS011;10593;48.398;10.698;2023-03-21T00:34:12;4.77;;;3.13;;
20865;SDS011;10593;48.398;10.698;2023-03-21T00:36:37;4.00;;;2.77;;
20865;SDS011;10593;48.398;10.698;2023-03-21T00:39:03;4.43;;;2.93;;
20865;SDS011;10593;48.398;10.698;2023-03-21T00:41:30;2.03;;;1.93;;
20865;SDS011;10593;48.398;10.698;2023-03-21T00:43:56;2.17;;;2.07;;
20865;SDS011;10593;48.398;10.698;2023-03-21T00:46:22;2.00;;;1.90;;
20865;SDS011;10593;48.398;10.698;2023-03-21T00:48:47;2.20;;;2.00;;
20865;SDS011;10593;48.398;10.698;2023-03-21T00:51:14;2.30;;;2.17;;
20865;SDS011;10593;48.398;10.698;2023-03-21T00:53:50;2.10;;;1.80;;
20865;SDS011;10593;48.398;10.698;2023-03-21T00:56:21;2.10;;;1.90;;
20865;SDS011;10593;48.398;10.698;2023-03-21T00:58:46;2.90;;;1.77;;
20865;SDS011;10593;48.398;10.698;2023-03-21T01:01:12;2.20;;;2.00;;
20865;SDS011;10593;48.398;10.698;2023-03-21T01:03:38;2.27;;;2.00;;
20865;SDS011;10593;48.398;10.698;2023-03-21T01:06:12;2.37;;;2.10;;
20865;SDS011;10593;48.398;10.698;2023-03-21T01:08:39;2.00;;;1.80;;
20865;SDS011;10593;48.398;10.698;2023-03-21T01:11:08;2.80;;;2.53;;
20865;SDS011;10593;48.398;10.698;2023-03-21T01:13:38;2.73;;;2.00;;
20865;SDS011;10593;48.398;10.698;2023-03-21T01:16:05;2.87;;;2.60;;
20865;SDS011;10593;48.398;10.698;2023-03-21T01:18:33;4.20;;;2.10;;
20865;SDS011;10593;48.398;10.698;2023-03-21T01:21:05;2.00;;;1.70;;
20865;SDS011;10593;48.398;10.698;2023-03-21T01:23:37;2.37;;;1.90;;
20865;SDS011;10593;48.398;10.698;2023-03-21T01:26:05;1.90;;;1.80;;
20865;SDS011;10593;48.398;10.698;2023-03-21T01:28:31;1.87;;;1.77;;
20865;SDS011;10593;48.398;10.698;2023-03-21T01:31:01;1.80;;;1.70;;
20865;SDS011;10593;48.398;10.698;2023-03-21T01:33:29;2.23;;;2.03;;
20865;SDS011;10593;48.398;10.698;2023-03-21T01:35:56;2.67;;;1.80;;
20865;SDS011;10593;48.398;10.698;2023-03-21T01:38:24;2.23;;;2.03;;
20865;SDS011;10593;48.398;10.698;2023-03-21T01:40:50;1.93;;;1.83;;
20865;SDS011;10593;48.398;10.698;2023-03-21T01:43:24;1.80;;;1.70;;
20865;SDS011;10593;48.398;10.698;2023-03-21T01:46:18;2.23;;;1.70;;
20865;SDS011;10593;48.398;10.698;2023-03-21T01:48:57;1.90;;;1.80;;
20865;SDS011;10593;48.398;10.698;2023-03-21T01:51:33;1.90;;;1.70;;
20865;SDS011;10593;48.398;10.698;2023-03-21T01:54:04;1.93;;;1.83;;
20865;SDS011;10593;48.398;10.698;2023-03-21T01:56:39;2.33;;;1.70;;
20865;SDS011;10593;48.398;10.698;2023-03-21T01:59:07;2.10;;;1.90;;
20865;SDS011;10593;48.398;10.698;2023-03-21T02:02:16;1.90;;;1.80;;
20865;SDS011;10593;48.398;10.698;2023-03-21T02:04:48;2.00;;;1.90;;
20865;SDS011;10593;48.398;10.698;2023-03-21T02:07:22;1.90;;;1.80;;
20865;SDS011;10593;48.398;10.698;2023-03-21T02:09:53;1.80;;;1.70;;
20865;SDS011;10593;48.398;10.698;2023-03-21T02:12:20;2.03;;;1.93;;
20865;SDS011;10593;48.398;10.698;2023-03-21T02:14:46;1.57;;;1.47;;
20865;SDS011;10593;48.398;10.698;2023-03-21T02:17:28;2.03;;;1.50;;
20865;SDS011;10593;48.398;10.698;2023-03-21T02:25:48;2.90;;;2.17;;
20865;SDS011;10593;48.398;10.698;2023-03-21T02:28:39;2.23;;;2.10;;
20865;SDS011;10593;48.398;10.698;2023-03-21T02:31:21;1.97;;;1.87;;
20865;SDS011;10593;48.398;10.698;2023-03-21T02:42:18;3.33;;;2.27;;
20865;SDS011;10593;48.398;10.698;2023-03-21T02:45:02;2.87;;;2.47;;
20865;SDS011;10593;48.398;10.698;2023-03-21T02:47:57;3.00;;;2.50;;
20865;SDS011;10593;48.398;10.698;2023-03-21T02:50:54;2.90;;;2.60;;
20865;SDS011;10593;48.398;10.698;2023-03-21T02:53:25;3.13;;;2.50;;
20865;SDS011;10593;48.398;10.698;2023-03-21T02:55:58;3.07;;;2.87;;
20865;SDS011;10593;48.398;10.698;2023-03-21T02:58:26;2.73;;;2.60;;
20865;SDS011;10593;48.398;10.698;2023-03-21T03:00:54;2.77;;;2.47;;
20865;SDS011;10593;48.398;10.698;2023-03-21T03:03:21;2.80;;;2.60;;
20865;SDS011;10593;48.398;10.698;2023-03-21T03:05:48;2.80;;;2.60;;
20865;SDS011;10593;48.398;10.698;2023-03-21T03:11:30;2.70;;;2.50;;
20865;SDS011;10593;48.398;10.698;2023-03-21T03:14:06;2.80;;;2.60;;
20865;SDS011;10593;48.398;10.698;2023-03-21T03:20:17;2.10;;;2.00;;
20865;SDS011;10593;48.398;10.698;2023-03-21T03:25:45;2.20;;;2.10;;
20865;SDS011;10593;48.398;10.698;2023-03-21T03:28:34;2.40;;;2.20;;
20865;SDS011;10593;48.398;10.698;2023-03-21T03:31:06;2.50;;;2.30;;
20865;SDS011;10593;48.398;10.698;2023-03-21T03:33:39;2.50;;;2.30;;
20865;SDS011;10593;48.398;10.698;2023-03-21T03:36:11;2.93;;;2.13;;
20865;SDS011;10593;48.398;10.698;2023-03-21T03:38:41;2.73;;;2.50;;
20865;SDS011;10593;48.398;10.698;2023-03-21T03:41:11;2.03;;;1.93;;
20865;SDS011;10593;48.398;10.698;2023-03-21T03:43:45;2.13;;;1.97;;
20865;SDS011;10593;48.398;10.698;2023-03-21T03:46:17;2.17;;;2.07;;
20865;SDS011;10593;48.398;10.698;2023-03-21T03:48:57;2.50;;;2.30;;
20865;SDS011;10593;48.398;10.698;2023-03-21T03:51:54;2.37;;;2.17;;
20865;SDS011;10593;48.398;10.698;2023-03-21T03:54:27;2.60;;;2.40;;
20865;SDS011;10593;48.398;10.698;2023-03-21T03:57:02;2.97;;;2.77;;
20865;SDS011;10593;48.398;10.698;2023-03-21T03:59:32;2.63;;;2.43;;
20865;SDS011;10593;48.398;10.698;2023-03-21T04:01:59;2.47;;;2.27;;
20865;SDS011;10593;48.398;10.698;2023-03-21T04:04:25;2.43;;;2.33;;
20865;SDS011;10593;48.398;10.698;2023-03-21T04:06:53;2.50;;;2.30;;
20865;SDS011;10593;48.398;10.698;2023-03-21T04:09:19;2.70;;;2.50;;
20865;SDS011;10593;48.398;10.698;2023-03-21T04:11:45;3.07;;;2.77;;
20865;SDS011;10593;48.398;10.698;2023-03-21T04:14:12;2.27;;;2.17;;
20865;SDS011;10593;48.398;10.698;2023-03-21T04:16:37;2.40;;;2.20;;
20865;SDS011;10593;48.398;10.698;2023-03-21T04:19:03;2.27;;;2.10;;
20865;SDS011;10593;48.398;10.698;2023-03-21T04:21:29;2.13;;;2.03;;
20865;SDS011;10593;48.398;10.698;2023-03-21T04:23:55;2.20;;;2.00;;
20865;SDS011;10593;48.398;10.698;2023-03-21T04:26:21;2.33;;;2.13;;
20865;SDS011;10593;48.398;10.698;2023-03-21T04:28:47;2.33;;;2.20;;
20865;SDS011;10593;48.398;10.698;2023-03-21T04:31:14;2.40;;;2.30;;
20865;SDS011;10593;48.398;10.698;2023-03-21T04:33:41;2.50;;;2.30;;
20865;SDS011;10593;48.398;10.698;2023-03-21T04:36:08;2.30;;;2.20;;
20865;SDS011;10593;48.398;10.698;2023-03-21T04:38:51;2.60;;;2.40;;
20865;SDS011;10593;48.398;10.698;2023-03-21T04:41:18;2.20;;;2.07;;
20865;SDS011;10593;48.398;10.698;2023-03-21T04:43:44;2.23;;;2.13;;
20865;SDS011;10593;48.398;10.698;2023-03-21T04:46:11;2.30;;;2.20;;
20865;SDS011;10593;48.398;10.698;2023-03-21T04:48:37;2.60;;;2.40;;
20865;SDS011;10593;48.398;10.698;2023-03-21T04:51:02;2.87;;;2.60;;
20865;SDS011;10593;48.398;10.698;2023-03-21T04:53:28;2.57;;;2.47;;
20865;SDS011;10593;48.398;10.698;2023-03-21T04:55:54;3.00;;;2.80;;
20865;SDS011;10593;48.398;10.698;2023-03-21T04:58:21;3.33;;;2.60;;
20865;SDS011;10593;48.398;10.698;2023-03-21T05:00:48;2.60;;;2.40;;
20865;SDS011;10593;48.398;10.698;2023-03-21T05:03:16;2.60;;;2.40;;
20865;SDS011;10593;48.398;10.698;2023-03-21T05:05:46;2.50;;;2.33;;
20865;SDS011;10593;48.398;10.698;2023-03-21T05:08:12;2.27;;;2.17;;
20865;SDS011;10593;48.398;10.698;2023-03-21T05:10:39;2.20;;;2.10;;
20865;SDS011;10593;48.398;10.698;2023-03-21T05:13:05;2.80;;;2.60;;
20865;SDS011;10593;48.398;10.698;2023-03-21T05:15:30;2.37;;;2.17;;
20865;SDS011;10593;48.398;10.698;2023-03-21T05:17:56;2.20;;;2.10;;
20865;SDS011;10593;48.398;10.698;2023-03-21T05:20:22;2.50;;;2.30;;
20865;SDS011;10593;48.398;10.698;2023-03-21T05:22:49;1.93;;;1.83;;
20865;SDS011;10593;48.398;10.698;2023-03-21T05:25:16;2.17;;;1.97;;
20865;SDS011;10593;48.398;10.698;2023-03-21T05:27:59;1.80;;;1.70;;
20865;SDS011;10593;48.398;10.698;2023-03-21T05:30:26;2.13;;;2.03;;
20865;SDS011;10593;48.398;10.698;2023-03-21T05:32:52;2.30;;;2.10;;
20865;SDS011;10593;48.398;10.698;2023-03-21T05:35:17;2.00;;;1.90;;
20865;SDS011;10593;48.398;10.698;2023-03-21T05:37:43;2.10;;;2.00;;
20865;SDS011;10593;48.398;10.698;2023-03-21T05:40:09;2.83;;;2.17;;
20865;SDS011;10593;48.398;10.698;2023-03-21T05:42:36;2.60;;;2.40;;
20865;SDS011;10593;48.398;10.698;2023-03-21T05:45:02;2.10;;;2.00;;
20865;SDS011;10593;48.398;10.698;2023-03-21T05:47:28;2.30;;;2.20;;
20865;SDS011;10593;48.398;10.698;2023-03-21T05:49:54;2.03;;;1.93;;
20865;SDS011;10593;48.398;10.698;2023-03-21T05:52:20;3.17;;;2.40;;
20865;SDS011;10593;48.398;10.698;2023-03-21T05:54:46;2.40;;;2.23;;
20865;SDS011;10593;48.398;10.698;2023-03-21T05:57:11;2.87;;;2.50;;
20865;SDS011;10593;48.398;10.698;2023-03-21T05:59:37;2.40;;;2.30;;
20865;SDS011;10593;48.398;10.698;2023-03-21T06:02:03;2.77;;;2.57;;
20865;SDS011;10593;48.398;10.698;2023-03-21T06:04:28;2.47;;;2.33;;
20865;SDS011;10593;48.398;10.698;2023-03-21T06:06:54;3.33;;;2.87;;
20865;SDS011;10593;48.398;10.698;2023-03-21T06:09:20;3.07;;;2.70;;
20865;SDS011;10593;48.398;10.698;2023-03-21T06:11:47;3.00;;;2.60;;
20865;SDS011;10593;48.398;10.698;2023-03-21T06:14:16;3.10;;;2.70;;
20865;SDS011;10593;48.398;10.698;2023-03-21T06:16:43;2.67;;;2.57;;
20865;SDS011;10593;48.398;10.698;2023-03-21T06:19:09;2.80;;;2.60;;
20865;SDS011;10593;48.398;10.698;2023-03-21T06:21:35;2.87;;;2.67;;
20865;SDS011;10593;48.398;10.698;2023-03-21T06:24:01;2.90;;;2.70;;
20865;SDS011;10593;48.398;10.698;2023-03-21T06:26:27;2.70;;;2.50;;
20865;SDS011;10593;48.398;10.698;2023-03-21T06:28:53;2.50;;;2.40;;
20865;SDS011;10593;48.398;10.698;2023-03-21T06:31:19;2.70;;;2.50;;
20865;SDS011;10593;48.398;10.698;2023-03-21T06:33:46;3.07;;;2.53;;
20865;SDS011;10593;48.398;10.698;2023-03-21T06:36:13;2.50;;;2.30;;
20865;SDS011;10593;48.398;10.698;2023-03-21T06:38:39;2.53;;;2.33;;
20865;SDS011;10593;48.398;10.698;2023-03-21T06:41:06;2.80;;;2.60;;
20865;SDS011;10593;48.398;10.698;2023-03-21T06:43:32;2.23;;;2.13;;
20865;SDS011;10593;48.398;10.698;2023-03-21T06:45:59;2.30;;;2.20;;
20865;SDS011;10593;48.398;10.698;2023-03-21T06:48:25;3.83;;;2.80;;
20865;SDS011;10593;48.398;10.698;2023-03-21T06:50:52;3.00;;;2.80;;
20865;SDS011;10593;48.398;10.698;2023-03-21T06:53:19;2.83;;;2.60;;
20865;SDS011;10593;48.398;10.698;2023-03-21T06:55:51;3.17;;;2.97;;
20865;SDS011;10593;48.398;10.698;2023-03-21T06:58:18;2.63;;;2.43;;
20865;SDS011;10593;48.398;10.698;2023-03-21T07:00:45;3.07;;;2.77;;
20865;SDS011;10593;48.398;10.698;2023-03-21T07:03:12;3.37;;;3.07;;
20865;SDS011;10593;48.398;10.698;2023-03-21T07:05:38;2.83;;;2.63;;
20865;SDS011;10593;48.398;10.698;2023-03-21T07:08:05;3.00;;;2.80;;
20865;SDS011;10593;48.398;10.698;2023-03-21T07:10:39;3.53;;;3.07;;
20865;SDS011;10593;48.398;10.698;2023-03-21T07:13:07;3.10;;;2.80;;
20865;SDS011;10593;48.398;10.698;2023-03-21T07:15:33;3.63;;;3.33;;
20865;SDS011;10593;48.398;10.698;2023-03-21T07:18:02;3.53;;;3.33;;
20865;SDS011;10593;48.398;10.698;2023-03-21T07:20:29;3.43;;;3.23;;
20865;SDS011;10593;48.398;10.698;2023-03-21T07:22:56;3.60;;;3.30;;
20865;SDS011;10593;48.398;10.698;2023-03-21T07:25:22;3.50;;;3.20;;
20865;SDS011;10593;48.398;10.698;2023-03-21T07:27:49;3.40;;;3.10;;
20865;SDS011;10593;48.398;10.698;2023-03-21T07:30:15;3.47;;;3.27;;
20865;SDS011;10593;48.398;10.698;2023-03-21T07:32:41;3.20;;;3.00;;
20865;SDS011;10593;48.398;10.698;2023-03-21T07:35:07;3.30;;;2.97;;
20865;SDS011;10593;48.398;10.698;2023-03-21T07:37:37;3.50;;;3.30;;
20865;SDS011;10593;48.398;10.698;2023-03-21T07:40:04;3.63;;;3.33;;
20865;SDS011;10593;48.398;10.698;2023-03-21T07:42:34;3.00;;;2.80;;
20865;SDS011;10593;48.398;10.698;2023-03-21T07:45:00;3.40;;;3.10;;
20865;SDS011;10593;48.398;10.698;2023-03-21T07:47:28;3.00;;;2.80;;
20865;SDS011;10593;48.398;10.698;2023-03-21T07:49:55;3.10;;;2.80;;
20865;SDS011;10593;48.398;10.698;2023-03-21T07:52:21;3.00;;;2.80;;
20865;SDS011;10593;48.398;10.698;2023-03-21T07:54:47;3.27;;;3.03;;
20865;SDS011;10593;48.398;10.698;2023-03-21T07:57:12;3.43;;;3.20;;
20865;SDS011;10593;48.398;10.698;2023-03-21T07:59:38;3.23;;;3.03;;
20865;SDS011;10593;48.398;10.698;2023-03-21T08:02:04;3.13;;;2.87;;
20865;SDS011;10593;48.398;10.698;2023-03-21T08:04:31;3.00;;;2.80;;
20865;SDS011;10593;48.398;10.698;2023-03-21T08:06:58;2.60;;;2.40;;
20865;SDS011;10593;48.398;10.698;2023-03-21T08:09:24;2.80;;;2.60;;
20865;SDS011;10593;48.398;10.698;2023-03-21T08:11:50;3.17;;;2.90;;
20865;SDS011;10593;48.398;10.698;2023-03-21T08:14:15;2.93;;;2.77;;
20865;SDS011;10593;48.398;10.698;2023-03-21T08:16:41;3.33;;;3.03;;
20865;SDS011;10593;48.398;10.698;2023-03-21T08:19:06;3.17;;;2.70;;
20865;SDS011;10593;48.398;10.698;2023-03-21T08:21:32;3.13;;;2.83;;
20865;SDS011;10593;48.398;10.698;2023-03-21T08:23:58;2.90;;;2.70;;
20865;SDS011;10593;48.398;10.698;2023-03-21T08:26:23;3.70;;;3.00;;
20865;SDS011;10593;48.398;10.698;2023-03-21T08:28:50;2.77;;;2.60;;
20865;SDS011;10593;48.398;10.698;2023-03-21T08:31:16;3.37;;;3.07;;
20865;SDS011;10593;48.398;10.698;2023-03-21T08:33:42;3.03;;;2.83;;
20865;SDS011;10593;48.398;10.698;2023-03-21T08:36:08;3.57;;;2.80;;
20865;SDS011;10593;48.398;10.698;2023-03-21T08:38:34;3.20;;;2.90;;
20865;SDS011;10593;48.398;10.698;2023-03-21T08:41:00;2.83;;;2.70;;
20865;SDS011;10593;48.398;10.698;2023-03-21T08:43:26;2.93;;;2.73;;
20865;SDS011;10593;48.398;10.698;2023-03-21T08:45:53;2.97;;;2.77;;
20865;SDS011;10593;48.398;10.698;2023-03-21T08:48:19;3.23;;;3.03;;
20865;SDS011;10593;48.398;10.698;2023-03-21T08:50:45;3.07;;;2.87;;
20865;SDS011;10593;48.398;10.698;2023-03-21T08:53:11;3.20;;;3.00;;
20865;SDS011;10593;48.398;10.698;2023-03-21T08:55:37;3.20;;;3.00;;
20865;SDS011;10593;48.398;10.698;2023-03-21T08:58:03;2.83;;;2.63;;
20865;SDS011;10593;48.398;10.698;2023-03-21T09:00:29;3.43;;;3.00;;
20865;SDS011;10593;48.398;10.698;2023-03-21T09:02:55;3.23;;;2.90;;
20865;SDS011;10593;48.398;10.698;2023-03-21T09:05:22;3.10;;;2.80;;
20865;SDS011;10593;48.398;10.698;2023-03-21T09:07:51;3.60;;;3.30;;
20865;SDS011;10593;48.398;10.698;2023-03-21T09:10:18;2.80;;;2.60;;
20865;SDS011;10593;48.398;10.698;2023-03-21T09:12:47;3.17;;;2.90;;
20865;SDS011;10593;48.398;10.698;2023-03-21T09:15:20;2.83;;;2.63;;
20865;SDS011;10593;48.398;10.698;2023-03-21T09:17:52;2.10;;;2.00;;
20865;SDS011;10593;48.398;10.698;2023-03-21T09:20:21;2.67;;;2.20;;
20865;SDS011;10593;48.398;10.698;2023-03-21T09:22:54;1.90;;;1.80;;
20865;SDS011;10593;48.398;10.698;2023-03-21T09:25:21;2.10;;;2.00;;
20865;SDS011;10593;48.398;10.698;2023-03-21T09:27:48;2.33;;;2.13;;
20865;SDS011;10593;48.398;10.698;2023-03-21T09:30:16;1.83;;;1.73;;
20865;SDS011;10593;48.398;10.698;2023-03-21T09:32:45;2.23;;;2.13;;
20865;SDS011;10593;48.398;10.698;2023-03-21T09:35:16;2.50;;;2.03;;
20865;SDS011;10593;48.398;10.698;2023-03-21T09:37:44;2.10;;;2.00;;
20865;SDS011;10593;48.398;10.698;2023-03-21T09:40:29;1.73;;;1.63;;
20865;SDS011;10593;48.398;10.698;2023-03-21T09:45:53;2.10;;;1.90;;
20865;SDS011;10593;48.398;10.698;2023-03-21T09:48:57;1.80;;;1.70;;
20865;SDS011;10593;48.398;10.698;2023-03-21T09:51:40;2.23;;;2.03;;
20865;SDS011;10593;48.398;10.698;2023-03-21T09:54:32;2.03;;;1.93;;
20865;SDS011;10593;48.398;10.698;2023-03-21T09:57:10;2.13;;;2.03;;
20865;SDS011;10593;48.398;10.698;2023-03-21T09:59:47;2.37;;;2.17;;
20865;SDS011;10593;48.398;10.698;2023-03-21T10:02:25;2.10;;;2.00;;
20865;SDS011;10593;48.398;10.698;2023-03-21T10:05:05;2.40;;;2.20;;
20865;SDS011;10593;48.398;10.698;2023-03-21T10:08:07;2.10;;;2.00;;
20865;SDS011;10593;48.398;10.698;2023-03-21T10:10:50;2.17;;;2.03;;
20865;SDS011;10593;48.398;10.698;2023-03-21T10:13:31;2.30;;;2.17;;
20865;SDS011;10593;48.398;10.698;2023-03-21T10:16:09;2.00;;;1.90;;
20865;SDS011;10593;48.398;10.698;2023-03-21T10:18:42;2.10;;;2.00;;
20865;SDS011;10593;48.398;10.698;2023-03-21T10:21:11;2.23;;;2.10;;
20865;SDS011;10593;48.398;10.698;2023-03-21T10:23:45;1.80;;;1.70;;
20865;SDS011;10593;48.398;10.698;2023-03-21T10:26:15;2.10;;;2.00;;
20865;SDS011;10593;48.398;10.698;2023-03-21T10:28:43;2.40;;;2.10;;
20865;SDS011;10593;48.398;10.698;2023-03-21T10:31:13;2.00;;;1.90;;
20865;SDS011;10593;48.398;10.698;2023-03-21T10:33:43;1.83;;;1.73;;
20865;SDS011;10593;48.398;10.698;2023-03-21T10:36:16;2.00;;;1.90;;
20865;SDS011;10593;48.398;10.698;2023-03-21T10:38:56;2.77;;;2.20;;
20865;SDS011;10593;48.398;10.698;2023-03-21T10:41:31;2.20;;;2.10;;
20865;SDS011;10593;48.398;10.698;2023-03-21T10:44:10;1.93;;;1.73;;
20865;SDS011;10593;48.398;10.698;2023-03-21T10:46:56;2.10;;;2.00;;
20865;SDS011;10593;48.398;10.698;2023-03-21T10:49:30;2.27;;;2.13;;
20865;SDS011;10593;48.398;10.698;2023-03-21T10:51:57;1.90;;;1.80;;
20865;SDS011;10593;48.398;10.698;2023-03-21T10:54:28;2.33;;;2.00;;
20865;SDS011;10593;48.398;10.698;2023-03-21T10:57:04;2.40;;;2.20;;
20865;SDS011;10593;48.398;10.698;2023-03-21T10:59:43;2.07;;;1.90;;
20865;SDS011;10593;48.398;10.698;2023-03-21T11:02:24;2.40;;;2.30;;
20865;SDS011;10593;48.398;10.698;2023-03-21T11:04:57;2.17;;;1.97;;
20865;SDS011;10593;48.398;10.698;2023-03-21T11:07:31;2.20;;;2.10;;
20865;SDS011;10593;48.398;10.698;2023-03-21T11:10:00;2.00;;;1.80;;
20865;SDS011;10593;48.398;10.698;2023-03-21T11:12:50;2.17;;;2.07;;
20865;SDS011;10593;48.398;10.698;2023-03-21T11:15:41;2.50;;;2.30;;
20865;SDS011;10593;48.398;10.698;2023-03-21T11:18:19;2.40;;;2.20;;
20865;SDS011;10593;48.398;10.698;2023-03-21T11:20:52;2.40;;;2.27;;
20865;SDS011;10593;48.398;10.698;2023-03-21T11:23:27;2.57;;;2.37;;
20865;SDS011;10593;48.398;10.698;2023-03-21T11:25:57;2.40;;;2.20;;
20865;SDS011;10593;48.398;10.698;2023-03-21T11:28:28;2.87;;;2.40;;
20865;SDS011;10593;48.398;10.698;2023-03-21T11:31:01;2.03;;;1.93;;
20865;SDS011;10593;48.398;10.698;2023-03-21T11:33:34;2.27;;;2.07;;
20865;SDS011;10593;48.398;10.698;2023-03-21T11:36:29;2.27;;;2.10;;
20865;SDS011;10593;48.398;10.698;2023-03-21T11:38:59;2.77;;;2.50;;
20865;SDS011;10593;48.398;10.698;2023-03-21T11:41:39;2.80;;;2.60;;
20865;SDS011;10593;48.398;10.698;2023-03-21T11:44:08;2.80;;;2.60;;
20865;SDS011;10593;48.398;10.698;2023-03-21T11:46:57;2.47;;;2.27;;
20865;SDS011;10593;48.398;10.698;2023-03-21T11:49:24;2.70;;;2.50;;
20865;SDS011;10593;48.398;10.698;2023-03-21T12:01:04;2.90;;;2.20;;
20865;SDS011;10593;48.398;10.698;2023-03-21T12:03:52;2.43;;;2.33;;
20865;SDS011;10593;48.398;10.698;2023-03-21T12:06:38;3.70;;;2.73;;
20865;SDS011;10593;48.398;10.698;2023-03-21T12:20:38;2.40;;;2.30;;
20865;SDS011;10593;48.398;10.698;2023-03-21T12:31:30;2.13;;;2.03;;
20865;SDS011;10593;48.398;10.698;2023-03-21T12:40:26;2.70;;;2.50;;
20865;SDS011;10593;48.398;10.698;2023-03-21T12:46:21;2.37;;;2.27;;
20865;SDS011;10593;48.398;10.698;2023-03-21T12:51:56;2.70;;;2.50;;
20865;SDS011;10593;48.398;10.698;2023-03-21T12:54:40;2.60;;;2.50;;
20865;SDS011;10593;48.398;10.698;2023-03-21T12:57:15;2.67;;;2.47;;
20865;SDS011;10593;48.398;10.698;2023-03-21T12:59:54;2.60;;;2.40;;
20865;SDS011;10593;48.398;10.698;2023-03-21T13:07:35;2.80;;;2.60;;
20865;SDS011;10593;48.398;10.698;2023-03-21T13:10:17;3.03;;;2.83;;
20865;SDS011;10593;48.398;10.698;2023-03-21T13:12:57;2.40;;;2.30;;
20865;SDS011;10593;48.398;10.698;2023-03-21T13:16:12;2.47;;;2.27;;
20865;SDS011;10593;48.398;10.698;2023-03-21T13:21:40;2.03;;;1.93;;
20865;SDS011;10593;48.398;10.698;2023-03-21T13:24:23;2.00;;;1.90;;
20865;SDS011;10593;48.398;10.698;2023-03-21T13:27:01;2.10;;;2.00;;
20865;SDS011;10593;48.398;10.698;2023-03-21T13:29:49;2.43;;;2.23;;
20865;SDS011;10593;48.398;10.698;2023-03-21T13:32:27;2.10;;;2.00;;
20865;SDS011;10593;48.398;10.698;2023-03-21T13:34:58;4.10;;;2.23;;
20865;SDS011;10593;48.398;10.698;2023-03-21T13:37:49;1.87;;;1.77;;
20865;SDS011;10593;48.398;10.698;2023-03-21T13:46:05;2.00;;;1.90;;
20865;SDS011;10593;48.398;10.698;2023-03-21T13:51:36;2.40;;;2.20;;
20865;SDS011;10593;48.398;10.698;2023-03-21T13:54:18;2.13;;;2.03;;
20865;SDS011;10593;48.398;10.698;2023-03-21T13:56:58;1.87;;;1.77;;
20865;SDS011;10593;48.398;10.698;2023-03-21T14:04:37;2.37;;;2.20;;
20865;SDS011;10593;48.398;10.698;2023-03-21T14:07:07;2.27;;;2.17;;
20865;SDS011;10593;48.398;10.698;2023-03-21T14:09:39;2.13;;;1.93;;
20865;SDS011;10593;48.398;10.698;2023-03-21T14:12:15;3.20;;;2.30;;
20865;SDS011;10593;48.398;10.698;2023-03-21T14:14:48;2.17;;;2.07;;
20865;SDS011;10593;48.398;10.698;2023-03-21T14:17:22;2.40;;;1.90;;
20865;SDS011;10593;48.398;10.698;2023-03-21T14:19:52;1.60;;;1.53;;
20865;SDS011;10593;48.398;10.698;2023-03-21T14:22:21;2.03;;;1.93;;
20865;SDS011;10593;48.398;10.698;2023-03-21T14:24:58;2.40;;;2.20;;
20865;SDS011;10593;48.398;10.698;2023-03-21T14:27:30;2.13;;;2.00;;
20865;SDS011;10593;48.398;10.698;2023-03-21T14:29:59;2.20;;;2.10;;
20865;SDS011;10593;48.398;10.698;2023-03-21T14:32:27;2.47;;;2.00;;
20865;SDS011;10593;48.398;10.698;2023-03-21T14:34:55;2.30;;;2.20;;
20865;SDS011;10593;48.398;10.698;2023-03-21T14:37:26;2.30;;;2.20;;
20865;SDS011;10593;48.398;10.698;2023-03-21T14:40:03;2.00;;;1.90;;
20865;SDS011;10593;48.398;10.698;2023-03-21T14:42:44;2.23;;;2.13;;
20865;SDS011;10593;48.398;10.698;2023-03-21T14:48:09;2.00;;;1.87;;
20865;SDS011;10593;48.398;10.698;2023-03-21T14:50:50;2.10;;;2.00;;
20865;SDS011;10593;48.398;10.698;2023-03-21T14:53:19;2.20;;;2.10;;
20865;SDS011;10593;48.398;10.698;2023-03-21T14:58:45;2.30;;;2.20;;
20865;SDS011;10593;48.398;10.698;2023-03-21T15:01:16;3.13;;;2.30;;
20865;SDS011;10593;48.398;10.698;2023-03-21T15:03:58;2.03;;;1.93;;
20865;SDS011;10593;48.398;10.698;2023-03-21T15:06:29;2.10;;;2.00;;
20865;SDS011;10593;48.398;10.698;2023-03-21T15:09:00;2.23;;;2.13;;
20865;SDS011;10593;48.398;10.698;2023-03-21T15:11:36;2.30;;;2.20;;
20865;SDS011;10593;48.398;10.698;2023-03-21T15:14:06;2.57;;;2.40;;
20865;SDS011;10593;48.398;10.698;2023-03-21T15:16:37;2.40;;;2.30;;
20865;SDS011;10593;48.398;10.698;2023-03-21T15:19:03;2.30;;;2.20;;
20865;SDS011;10593;48.398;10.698;2023-03-21T15:24:05;3.43;;;3.13;;
20865;SDS011;10593;48.398;10.698;2023-03-21T15:26:45;2.70;;;2.50;;
20865;SDS011;10593;48.398;10.698;2023-03-21T15:29:13;2.90;;;2.70;;
20865;SDS011;10593;48.398;10.698;2023-03-21T15:31:41;2.70;;;2.50;;
20865;SDS011;10593;48.398;10.698;2023-03-21T15:34:25;2.60;;;2.40;;
20865;SDS011;10593;48.398;10.698;2023-03-21T15:36:55;2.70;;;2.50;;
20865;SDS011;10593;48.398;10.698;2023-03-21T15:39:29;2.67;;;2.47;;
20865;SDS011;10593;48.398;10.698;2023-03-21T15:42:05;2.80;;;2.60;;
20865;SDS011;10593;48.398;10.698;2023-03-21T15:44:50;2.60;;;2.40;;
20865;SDS011;10593;48.398;10.698;2023-03-21T15:50:21;2.60;;;2.40;;
20865;SDS011;10593;48.398;10.698;2023-03-21T15:52:57;3.27;;;2.77;;
20865;SDS011;10593;48.398;10.698;2023-03-21T15:55:31;2.70;;;2.60;;
20865;SDS011;10593;48.398;10.698;2023-03-21T15:58:13;3.00;;;2.70;;
20865;SDS011;10593;48.398;10.698;2023-03-21T16:00:46;2.83;;;2.60;;
20865;SDS011;10593;48.398;10.698;2023-03-21T16:03:20;2.70;;;2.50;;
20865;SDS011;10593;48.398;10.698;2023-03-21T16:06:02;2.60;;;2.40;;
20865;SDS011;10593;48.398;10.698;2023-03-21T16:08:36;2.80;;;2.60;;
20865;SDS011;10593;48.398;10.698;2023-03-21T16:13:50;3.10;;;2.90;;
20865;SDS011;10593;48.398;10.698;2023-03-21T16:16:26;2.63;;;2.43;;
20865;SDS011;10593;48.398;10.698;2023-03-21T16:18:54;3.00;;;2.80;;
20865;SDS011;10593;48.398;10.698;2023-03-21T16:21:23;2.90;;;2.70;;
20865;SDS011;10593;48.398;10.698;2023-03-21T16:23:54;3.27;;;2.97;;
20865;SDS011;10593;48.398;10.698;2023-03-21T16:26:23;3.50;;;3.20;;
20865;SDS011;10593;48.398;10.698;2023-03-21T16:28:51;3.07;;;2.87;;
20865;SDS011;10593;48.398;10.698;2023-03-21T16:31:24;3.00;;;2.80;;
20865;SDS011;10593;48.398;10.698;2023-03-21T16:33:52;3.10;;;2.90;;
20865;SDS011;10593;48.398;10.698;2023-03-21T16:36:20;3.20;;;3.00;;
20865;SDS011;10593;48.398;10.698;2023-03-21T16:38:56;2.77;;;2.57;;
20865;SDS011;10593;48.398;10.698;2023-03-21T16:41:23;2.80;;;2.60;;
20865;SDS011;10593;48.398;10.698;2023-03-21T16:43:51;3.07;;;2.87;;
20865;SDS011;10593;48.398;10.698;2023-03-21T16:46:24;2.93;;;2.73;;